sensor_id;sensor_type;location;lat;lon;timestamp;P1;durP1;ratioP1;P2;durP2;ratioP2
2464;SDS011;1244;54.326;10.074;2023-02-24T00:00:59;0.30;;;0.30;;
2464;SDS011;1244;54.326;10.074;2023-02-24T00:03:33;0.30;;;0.30;;
2464;SDS011;1244;54.326;10.074;2023-02-24T00:06:01;0.27;;;0.27;;
2464;SDS011;1244;54.326;10.074;2023-02-24T00:08:29;0.30;;;0.30;;
2464;SDS011;1244;54.326;10.074;2023-02-24T00:10:55;0.30;;;0.30;;
2464;SDS011;1244;54.326;10.074;2023-02-24T00:13:21;0.40;;;0.40;;
2464;SDS011;1244;54.326;10.074;2023-02-24T00:15:56;0.40;;;0.40;;
2464;SDS011;1244;54.326;10.074;2023-02-24T00:18:24;0.40;;;0.40;;
2464;SDS011;1244;54.326;10.074;2023-02-24T00:20:50;0.30;;;0.30;;
2464;SDS011;1244;54.326;10.074;2023-02-24T00:23:20;0.37;;;0.37;;
2464;SDS011;1244;54.326;10.074;2023-02-24T00:25:47;0.27;;;0.27;;
2464;SDS011;1244;54.326;10.074;2023-02-24T00:28:13;0.30;;;0.30;;
2464;SDS011;1244;54.326;10.074;2023-02-24T00:30:39;0.40;;;0.40;;
2464;SDS011;1244;54.326;10.074;2023-02-24T00:33:04;0.30;;;0.30;;
2464;SDS011;1244;54.326;10.074;2023-02-24T00:35:30;0.30;;;0.30;;
2464;SDS011;1244;54.326;10.074;2023-02-24T00:37:56;0.30;;;0.30;;
2464;SDS011;1244;54.326;10.074;2023-02-24T00:40:21;0.30;;;0.30;;
2464;SDS011;1244;54.326;10.074;2023-02-24T00:42:48;0.33;;;0.33;;
2464;SDS011;1244;54.326;10.074;2023-02-24T00:45:13;0.30;;;0.30;;
2464;SDS011;1244;54.326;10.074;2023-02-24T00:47:40;0.30;;;0.30;;
2464;SDS011;1244;54.326;10.074;2023-02-24T00:50:07;0.30;;;0.30;;
2464;SDS011;1244;54.326;10.074;2023-02-24T00:52:33;0.33;;;0.33;;
2464;SDS011;1244;54.326;10.074;2023-02-24T00:55:00;0.30;;;0.30;;
2464;SDS011;1244;54.326;10.074;2023-02-24T00:57:28;0.40;;;0.40;;
2464;SDS011;1244;54.326;10.074;2023-02-24T00:59:53;0.30;;;0.30;;
2464;SDS011;1244;54.326;10.074;2023-02-24T01:02:22;0.40;;;0.40;;
2464;SDS011;1244;54.326;10.074;2023-02-24T01:04:47;0.40;;;0.40;;
2464;SDS011;1244;54.326;10.074;2023-02-24T01:07:14;0.30;;;0.30;;
2464;SDS011;1244;54.326;10.074;2023-02-24T01:09:40;0.30;;;0.30;;
2464;SDS011;1244;54.326;10.074;2023-02-24T01:12:06;0.30;;;0.30;;
2464;SDS011;1244;54.326;10.074;2023-02-24T01:15:02;0.20;;;0.20;;
2464;SDS011;1244;54.326;10.074;2023-02-24T01:17:29;0.20;;;0.20;;
2464;SDS011;1244;54.326;10.074;2023-02-24T01:19:54;0.40;;;0.40;;
2464;SDS011;1244;54.326;10.074;2023-02-24T01:22:24;0.30;;;0.30;;
2464;SDS011;1244;54.326;10.074;2023-02-24T01:24:50;0.30;;;0.30;;
2464;SDS011;1244;54.326;10.074;2023-02-24T01:27:17;0.40;;;0.40;;
2464;SDS011;1244;54.326;10.074;2023-02-24T01:29:43;0.30;;;0.30;;
2464;SDS011;1244;54.326;10.074;2023-02-24T01:32:13;0.40;;;0.40;;
2464;SDS011;1244;54.326;10.074;2023-02-24T01:34:41;0.40;;;0.40;;
2464;SDS011;1244;54.326;10.074;2023-02-24T01:37:07;0.40;;;0.40;;
2464;SDS011;1244;54.326;10.074;2023-02-24T01:39:32;0.30;;;0.30;;
2464;SDS011;1244;54.326;10.074;2023-02-24T01:41:59;0.30;;;0.30;;
2464;SDS011;1244;54.326;10.074;2023-02-24T01:46:56;0.47;;;0.47;;
2464;SDS011;1244;54.326;10.074;2023-02-24T01:49:38;0.40;;;0.40;;
2464;SDS011;1244;54.326;10.074;2023-02-24T01:55:13;0.30;;;0.30;;
2464;SDS011;1244;54.326;10.074;2023-02-24T01:57:44;0.40;;;0.40;;
2464;SDS011;1244;54.326;10.074;2023-02-24T02:00:12;0.43;;;0.43;;
2464;SDS011;1244;54.326;10.074;2023-02-24T02:02:58;0.40;;;0.40;;
2464;SDS011;1244;54.326;10.074;2023-02-24T02:05:28;0.40;;;0.40;;
2464;SDS011;1244;54.326;10.074;2023-02-24T02:07:53;0.40;;;0.40;;
2464;SDS011;1244;54.326;10.074;2023-02-24T02:10:19;0.30;;;0.30;;
2464;SDS011;1244;54.326;10.074;2023-02-24T02:12:45;0.30;;;0.30;;
2464;SDS011;1244;54.326;10.074;2023-02-24T02:15:11;0.30;;;0.30;;
2464;SDS011;1244;54.326;10.074;2023-02-24T02:20:43;0.30;;;0.30;;
2464;SDS011;1244;54.326;10.074;2023-02-24T02:32:06;0.23;;;0.23;;
2464;SDS011;1244;54.326;10.074;2023-02-24T02:40:06;0.40;;;0.40;;
2464;SDS011;1244;54.326;10.074;2023-02-24T02:45:23;0.30;;;0.30;;
2464;SDS011;1244;54.326;10.074;2023-02-24T02:48:09;0.30;;;0.30;;
2464;SDS011;1244;54.326;10.074;2023-02-24T02:50:44;0.30;;;0.30;;
2464;SDS011;1244;54.326;10.074;2023-02-24T02:53:39;0.30;;;0.30;;
2464;SDS011;1244;54.326;10.074;2023-02-24T02:56:18;0.30;;;0.30;;
2464;SDS011;1244;54.326;10.074;2023-02-24T02:58:55;0.20;;;0.20;;
2464;SDS011;1244;54.326;10.074;2023-02-24T03:01:25;0.30;;;0.30;;
2464;SDS011;1244;54.326;10.074;2023-02-24T03:03:55;0.30;;;0.30;;
2464;SDS011;1244;54.326;10.074;2023-02-24T03:06:26;0.40;;;0.40;;
2464;SDS011;1244;54.326;10.074;2023-02-24T03:08:56;0.30;;;0.30;;
2464;SDS011;1244;54.326;10.074;2023-02-24T03:11:47;0.30;;;0.30;;
2464;SDS011;1244;54.326;10.074;2023-02-24T03:14:21;0.30;;;0.30;;
2464;SDS011;1244;54.326;10.074;2023-02-24T03:16:52;0.30;;;0.30;;
2464;SDS011;1244;54.326;10.074;2023-02-24T03:19:22;0.30;;;0.30;;
2464;SDS011;1244;54.326;10.074;2023-02-24T03:22:26;0.30;;;0.30;;
2464;SDS011;1244;54.326;10.074;2023-02-24T03:24:48;0.30;;;0.30;;
2464;SDS011;1244;54.326;10.074;2023-02-24T03:30:09;0.40;;;0.40;;
2464;SDS011;1244;54.326;10.074;2023-02-24T03:32:52;0.30;;;0.30;;
2464;SDS011;1244;54.326;10.074;2023-02-24T03:35:23;0.30;;;0.30;;
2464;SDS011;1244;54.326;10.074;2023-02-24T03:37:52;0.30;;;0.30;;
2464;SDS011;1244;54.326;10.074;2023-02-24T03:40:21;0.40;;;0.40;;
2464;SDS011;1244;54.326;10.074;2023-02-24T03:42:55;0.40;;;0.40;;
2464;SDS011;1244;54.326;10.074;2023-02-24T03:45:23;0.30;;;0.30;;
2464;SDS011;1244;54.326;10.074;2023-02-24T03:47:51;0.30;;;0.30;;
2464;SDS011;1244;54.326;10.074;2023-02-24T03:50:20;0.30;;;0.30;;
2464;SDS011;1244;54.326;10.074;2023-02-24T03:52:49;0.30;;;0.30;;
2464;SDS011;1244;54.326;10.074;2023-02-24T03:58:27;0.20;;;0.20;;
2464;SDS011;1244;54.326;10.074;2023-02-24T04:06:32;0.33;;;0.33;;
2464;SDS011;1244;54.326;10.074;2023-02-24T04:09:15;0.30;;;0.30;;
2464;SDS011;1244;54.326;10.074;2023-02-24T04:14:36;0.30;;;0.30;;
2464;SDS011;1244;54.326;10.074;2023-02-24T04:17:15;0.40;;;0.40;;
2464;SDS011;1244;54.326;10.074;2023-02-24T04:19:47;0.40;;;0.40;;
2464;SDS011;1244;54.326;10.074;2023-02-24T04:22:16;0.40;;;0.40;;
2464;SDS011;1244;54.326;10.074;2023-02-24T04:24:49;0.40;;;0.40;;
2464;SDS011;1244;54.326;10.074;2023-02-24T04:27:16;0.30;;;0.30;;
2464;SDS011;1244;54.326;10.074;2023-02-24T04:29:46;0.40;;;0.40;;
2464;SDS011;1244;54.326;10.074;2023-02-24T04:32:17;0.40;;;0.40;;
2464;SDS011;1244;54.326;10.074;2023-02-24T04:34:46;0.30;;;0.30;;
2464;SDS011;1244;54.326;10.074;2023-02-24T04:37:11;0.30;;;0.30;;
2464;SDS011;1244;54.326;10.074;2023-02-24T04:39:37;0.40;;;0.40;;
2464;SDS011;1244;54.326;10.074;2023-02-24T04:42:04;0.30;;;0.30;;
2464;SDS011;1244;54.326;10.074;2023-02-24T04:44:30;0.40;;;0.40;;
2464;SDS011;1244;54.326;10.074;2023-02-24T04:46:59;0.40;;;0.40;;
2464;SDS011;1244;54.326;10.074;2023-02-24T04:49:24;0.40;;;0.40;;
2464;SDS011;1244;54.326;10.074;2023-02-24T04:51:50;0.40;;;0.40;;
2464;SDS011;1244;54.326;10.074;2023-02-24T04:54:16;0.30;;;0.30;;
2464;SDS011;1244;54.326;10.074;2023-02-24T04:56:47;0.20;;;0.20;;
2464;SDS011;1244;54.326;10.074;2023-02-24T04:59:14;0.30;;;0.30;;
2464;SDS011;1244;54.326;10.074;2023-02-24T05:01:41;0.40;;;0.40;;
2464;SDS011;1244;54.326;10.074;2023-02-24T05:04:08;0.40;;;0.40;;
2464;SDS011;1244;54.326;10.074;2023-02-24T05:06:35;0.30;;;0.30;;
2464;SDS011;1244;54.326;10.074;2023-02-24T05:09:04;0.30;;;0.30;;
2464;SDS011;1244;54.326;10.074;2023-02-24T05:11:38;0.30;;;0.30;;
2464;SDS011;1244;54.326;10.074;2023-02-24T05:14:06;0.30;;;0.30;;
2464;SDS011;1244;54.326;10.074;2023-02-24T05:16:38;0.40;;;0.40;;
2464;SDS011;1244;54.326;10.074;2023-02-24T05:19:08;0.30;;;0.30;;
2464;SDS011;1244;54.326;10.074;2023-02-24T05:21:53;0.40;;;0.40;;
2464;SDS011;1244;54.326;10.074;2023-02-24T05:24:22;0.40;;;0.40;;
2464;SDS011;1244;54.326;10.074;2023-02-24T05:26:49;0.33;;;0.33;;
2464;SDS011;1244;54.326;10.074;2023-02-24T05:29:22;0.50;;;0.50;;
2464;SDS011;1244;54.326;10.074;2023-02-24T05:31:51;0.40;;;0.40;;
2464;SDS011;1244;54.326;10.074;2023-02-24T05:34:18;0.50;;;0.50;;
2464;SDS011;1244;54.326;10.074;2023-02-24T05:36:44;0.40;;;0.40;;
2464;SDS011;1244;54.326;10.074;2023-02-24T05:39:10;0.40;;;0.40;;
2464;SDS011;1244;54.326;10.074;2023-02-24T05:41:39;0.30;;;0.30;;
2464;SDS011;1244;54.326;10.074;2023-02-24T05:44:07;0.40;;;0.40;;
2464;SDS011;1244;54.326;10.074;2023-02-24T05:46:39;0.40;;;0.40;;
2464;SDS011;1244;54.326;10.074;2023-02-24T05:49:13;0.30;;;0.30;;
2464;SDS011;1244;54.326;10.074;2023-02-24T05:51:44;0.30;;;0.30;;
2464;SDS011;1244;54.326;10.074;2023-02-24T05:54:18;0.30;;;0.30;;
2464;SDS011;1244;54.326;10.074;2023-02-24T05:56:45;0.40;;;0.40;;
2464;SDS011;1244;54.326;10.074;2023-02-24T05:59:11;0.40;;;0.40;;
2464;SDS011;1244;54.326;10.074;2023-02-24T06:01:38;0.40;;;0.40;;
2464;SDS011;1244;54.326;10.074;2023-02-24T06:04:11;0.30;;;0.30;;
2464;SDS011;1244;54.326;10.074;2023-02-24T06:06:45;0.40;;;0.40;;
2464;SDS011;1244;54.326;10.074;2023-02-24T06:09:16;0.40;;;0.40;;
2464;SDS011;1244;54.326;10.074;2023-02-24T06:11:42;0.23;;;0.23;;
2464;SDS011;1244;54.326;10.074;2023-02-24T06:14:09;0.40;;;0.40;;
2464;SDS011;1244;54.326;10.074;2023-02-24T06:16:36;0.40;;;0.40;;
2464;SDS011;1244;54.326;10.074;2023-02-24T06:19:04;0.30;;;0.30;;
2464;SDS011;1244;54.326;10.074;2023-02-24T06:21:30;0.40;;;0.40;;
2464;SDS011;1244;54.326;10.074;2023-02-24T06:23:56;0.30;;;0.30;;
2464;SDS011;1244;54.326;10.074;2023-02-24T06:26:22;0.40;;;0.40;;
2464;SDS011;1244;54.326;10.074;2023-02-24T06:28:51;0.33;;;0.33;;
2464;SDS011;1244;54.326;10.074;2023-02-24T06:31:18;0.40;;;0.40;;
2464;SDS011;1244;54.326;10.074;2023-02-24T06:33:45;0.30;;;0.30;;
2464;SDS011;1244;54.326;10.074;2023-02-24T06:36:11;0.30;;;0.30;;
2464;SDS011;1244;54.326;10.074;2023-02-24T06:38:38;0.30;;;0.30;;
2464;SDS011;1244;54.326;10.074;2023-02-24T06:41:04;0.33;;;0.33;;
2464;SDS011;1244;54.326;10.074;2023-02-24T06:43:37;0.40;;;0.40;;
2464;SDS011;1244;54.326;10.074;2023-02-24T06:46:07;0.40;;;0.40;;
2464;SDS011;1244;54.326;10.074;2023-02-24T06:48:35;0.40;;;0.40;;
2464;SDS011;1244;54.326;10.074;2023-02-24T06:51:02;0.37;;;0.37;;
2464;SDS011;1244;54.326;10.074;2023-02-24T06:53:29;0.37;;;0.37;;
2464;SDS011;1244;54.326;10.074;2023-02-24T06:55:58;0.30;;;0.30;;
2464;SDS011;1244;54.326;10.074;2023-02-24T06:58:28;0.40;;;0.40;;
2464;SDS011;1244;54.326;10.074;2023-02-24T07:00:55;0.40;;;0.40;;
2464;SDS011;1244;54.326;10.074;2023-02-24T07:03:22;0.40;;;0.40;;
2464;SDS011;1244;54.326;10.074;2023-02-24T07:05:50;0.40;;;0.40;;
2464;SDS011;1244;54.326;10.074;2023-02-24T07:08:35;0.30;;;0.30;;
2464;SDS011;1244;54.326;10.074;2023-02-24T07:11:01;0.30;;;0.30;;
2464;SDS011;1244;54.326;10.074;2023-02-24T07:13:30;0.30;;;0.30;;
2464;SDS011;1244;54.326;10.074;2023-02-24T07:15:58;0.30;;;0.30;;
2464;SDS011;1244;54.326;10.074;2023-02-24T07:18:30;0.40;;;0.40;;
2464;SDS011;1244;54.326;10.074;2023-02-24T07:20:59;0.33;;;0.33;;
2464;SDS011;1244;54.326;10.074;2023-02-24T07:23:29;0.40;;;0.40;;
2464;SDS011;1244;54.326;10.074;2023-02-24T07:25:55;0.40;;;0.40;;
2464;SDS011;1244;54.326;10.074;2023-02-24T07:28:22;0.40;;;0.40;;
2464;SDS011;1244;54.326;10.074;2023-02-24T07:30:49;0.40;;;0.40;;
2464;SDS011;1244;54.326;10.074;2023-02-24T07:33:16;0.30;;;0.30;;
2464;SDS011;1244;54.326;10.074;2023-02-24T07:35:47;0.33;;;0.33;;
2464;SDS011;1244;54.326;10.074;2023-02-24T07:38:14;0.30;;;0.30;;
2464;SDS011;1244;54.326;10.074;2023-02-24T07:40:41;0.30;;;0.30;;
2464;SDS011;1244;54.326;10.074;2023-02-24T07:43:07;0.40;;;0.40;;
2464;SDS011;1244;54.326;10.074;2023-02-24T07:45:33;0.30;;;0.30;;
2464;SDS011;1244;54.326;10.074;2023-02-24T07:47:58;0.40;;;0.40;;
2464;SDS011;1244;54.326;10.074;2023-02-24T07:50:25;0.40;;;0.40;;
2464;SDS011;1244;54.326;10.074;2023-02-24T07:52:52;0.30;;;0.30;;
2464;SDS011;1244;54.326;10.074;2023-02-24T07:55:17;0.40;;;0.40;;
2464;SDS011;1244;54.326;10.074;2023-02-24T07:57:43;0.40;;;0.40;;
2464;SDS011;1244;54.326;10.074;2023-02-24T08:00:15;0.30;;;0.30;;
2464;SDS011;1244;54.326;10.074;2023-02-24T08:02:45;0.23;;;0.23;;
2464;SDS011;1244;54.326;10.074;2023-02-24T08:05:12;0.30;;;0.30;;
2464;SDS011;1244;54.326;10.074;2023-02-24T08:07:38;0.30;;;0.30;;
2464;SDS011;1244;54.326;10.074;2023-02-24T08:10:04;0.30;;;0.30;;
2464;SDS011;1244;54.326;10.074;2023-02-24T08:12:38;0.40;;;0.40;;
2464;SDS011;1244;54.326;10.074;2023-02-24T08:15:07;0.30;;;0.30;;
2464;SDS011;1244;54.326;10.074;2023-02-24T08:17:41;0.30;;;0.30;;
2464;SDS011;1244;54.326;10.074;2023-02-24T08:20:07;0.40;;;0.40;;
2464;SDS011;1244;54.326;10.074;2023-02-24T08:22:39;0.40;;;0.40;;
2464;SDS011;1244;54.326;10.074;2023-02-24T08:25:08;0.37;;;0.37;;
2464;SDS011;1244;54.326;10.074;2023-02-24T08:27:42;0.30;;;0.30;;
2464;SDS011;1244;54.326;10.074;2023-02-24T08:30:08;0.30;;;0.30;;
2464;SDS011;1244;54.326;10.074;2023-02-24T08:32:45;0.20;;;0.20;;
2464;SDS011;1244;54.326;10.074;2023-02-24T08:35:15;0.37;;;0.37;;
2464;SDS011;1244;54.326;10.074;2023-02-24T08:37:43;0.30;;;0.30;;
2464;SDS011;1244;54.326;10.074;2023-02-24T08:40:25;0.30;;;0.30;;
2464;SDS011;1244;54.326;10.074;2023-02-24T08:43:39;0.40;;;0.40;;
2464;SDS011;1244;54.326;10.074;2023-02-24T08:45:54;0.30;;;0.30;;
2464;SDS011;1244;54.326;10.074;2023-02-24T08:48:23;0.40;;;0.40;;
2464;SDS011;1244;54.326;10.074;2023-02-24T08:51:25;0.30;;;0.30;;
2464;SDS011;1244;54.326;10.074;2023-02-24T08:53:49;0.30;;;0.30;;
2464;SDS011;1244;54.326;10.074;2023-02-24T08:56:20;0.33;;;0.33;;
2464;SDS011;1244;54.326;10.074;2023-02-24T08:58:52;0.30;;;0.30;;
2464;SDS011;1244;54.326;10.074;2023-02-24T09:01:29;0.30;;;0.30;;
2464;SDS011;1244;54.326;10.074;2023-02-24T09:04:07;0.30;;;0.30;;
2464;SDS011;1244;54.326;10.074;2023-02-24T09:06:47;0.30;;;0.30;;
2464;SDS011;1244;54.326;10.074;2023-02-24T09:09:16;0.20;;;0.20;;
2464;SDS011;1244;54.326;10.074;2023-02-24T09:14:19;0.20;;;0.20;;
2464;SDS011;1244;54.326;10.074;2023-02-24T09:16:48;0.30;;;0.30;;
2464;SDS011;1244;54.326;10.074;2023-02-24T09:19:44;0.30;;;0.30;;
2464;SDS011;1244;54.326;10.074;2023-02-24T09:22:12;0.30;;;0.30;;
2464;SDS011;1244;54.326;10.074;2023-02-24T09:25:21;0.30;;;0.30;;
2464;SDS011;1244;54.326;10.074;2023-02-24T09:27:53;0.30;;;0.30;;
2464;SDS011;1244;54.326;10.074;2023-02-24T09:30:32;0.20;;;0.20;;
2464;SDS011;1244;54.326;10.074;2023-02-24T09:35:51;0.27;;;0.27;;
2464;SDS011;1244;54.326;10.074;2023-02-24T09:38:33;0.30;;;0.30;;
2464;SDS011;1244;54.326;10.074;2023-02-24T09:41:23;0.30;;;0.30;;
2464;SDS011;1244;54.326;10.074;2023-02-24T09:43:58;0.20;;;0.20;;
2464;SDS011;1244;54.326;10.074;2023-02-24T09:46:29;0.30;;;0.30;;
2464;SDS011;1244;54.326;10.074;2023-02-24T09:49:07;0.20;;;0.20;;
2464;SDS011;1244;54.326;10.074;2023-02-24T09:51:41;0.20;;;0.20;;
2464;SDS011;1244;54.326;10.074;2023-02-24T09:54:10;0.30;;;0.30;;
2464;SDS011;1244;54.326;10.074;2023-02-24T09:56:50;0.20;;;0.20;;
2464;SDS011;1244;54.326;10.074;2023-02-24T10:05:24;0.20;;;0.20;;
2464;SDS011;1244;54.326;10.074;2023-02-24T10:08:02;0.20;;;0.20;;
2464;SDS011;1244;54.326;10.074;2023-02-24T10:10:37;0.20;;;0.20;;
2464;SDS011;1244;54.326;10.074;2023-02-24T10:15:42;0.20;;;0.20;;
2464;SDS011;1244;54.326;10.074;2023-02-24T10:18:25;0.30;;;0.30;;
2464;SDS011;1244;54.326;10.074;2023-02-24T10:21:04;0.20;;;0.20;;
2464;SDS011;1244;54.326;10.074;2023-02-24T10:24:03;0.20;;;0.20;;
2464;SDS011;1244;54.326;10.074;2023-02-24T10:27:11;0.30;;;0.30;;
2464;SDS011;1244;54.326;10.074;2023-02-24T10:32:56;0.20;;;0.20;;
2464;SDS011;1244;54.326;10.074;2023-02-24T10:35:27;0.20;;;0.20;;
2464;SDS011;1244;54.326;10.074;2023-02-24T10:37:57;0.20;;;0.20;;
2464;SDS011;1244;54.326;10.074;2023-02-24T10:40:29;0.20;;;0.20;;
2464;SDS011;1244;54.326;10.074;2023-02-24T10:43:14;0.20;;;0.20;;
2464;SDS011;1244;54.326;10.074;2023-02-24T10:45:43;0.20;;;0.20;;
2464;SDS011;1244;54.326;10.074;2023-02-24T10:48:17;0.10;;;0.10;;
2464;SDS011;1244;54.326;10.074;2023-02-24T10:50:49;0.20;;;0.20;;
2464;SDS011;1244;54.326;10.074;2023-02-24T10:53:20;0.20;;;0.20;;
2464;SDS011;1244;54.326;10.074;2023-02-24T10:56:00;0.20;;;0.20;;
2464;SDS011;1244;54.326;10.074;2023-02-24T10:59:10;0.20;;;0.20;;
2464;SDS011;1244;54.326;10.074;2023-02-24T11:02:13;0.20;;;0.20;;
2464;SDS011;1244;54.326;10.074;2023-02-24T11:04:53;0.20;;;0.20;;
2464;SDS011;1244;54.326;10.074;2023-02-24T11:07:23;0.20;;;0.20;;
2464;SDS011;1244;54.326;10.074;2023-02-24T11:10:30;0.20;;;0.20;;
2464;SDS011;1244;54.326;10.074;2023-02-24T11:12:50;0.20;;;0.20;;
2464;SDS011;1244;54.326;10.074;2023-02-24T11:15:55;0.20;;;0.20;;
2464;SDS011;1244;54.326;10.074;2023-02-24T11:18:44;0.20;;;0.20;;
2464;SDS011;1244;54.326;10.074;2023-02-24T11:21:13;0.20;;;0.20;;
2464;SDS011;1244;54.326;10.074;2023-02-24T11:23:41;0.20;;;0.20;;
2464;SDS011;1244;54.326;10.074;2023-02-24T11:26:17;0.20;;;0.20;;
2464;SDS011;1244;54.326;10.074;2023-02-24T11:31:47;0.20;;;0.20;;
2464;SDS011;1244;54.326;10.074;2023-02-24T11:37:24;0.20;;;0.20;;
2464;SDS011;1244;54.326;10.074;2023-02-24T11:40:13;0.30;;;0.30;;
2464;SDS011;1244;54.326;10.074;2023-02-24T11:45:45;0.20;;;0.20;;
2464;SDS011;1244;54.326;10.074;2023-02-24T11:48:17;0.20;;;0.20;;
2464;SDS011;1244;54.326;10.074;2023-02-24T11:50:53;0.20;;;0.20;;
2464;SDS011;1244;54.326;10.074;2023-02-24T11:53:33;0.30;;;0.30;;
2464;SDS011;1244;54.326;10.074;2023-02-24T11:56:19;0.20;;;0.20;;
2464;SDS011;1244;54.326;10.074;2023-02-24T11:59:29;0.30;;;0.30;;
2464;SDS011;1244;54.326;10.074;2023-02-24T12:02:02;0.20;;;0.20;;
2464;SDS011;1244;54.326;10.074;2023-02-24T12:04:33;0.20;;;0.20;;
2464;SDS011;1244;54.326;10.074;2023-02-24T12:10:31;0.10;;;0.10;;
2464;SDS011;1244;54.326;10.074;2023-02-24T12:13:15;0.10;;;0.10;;
2464;SDS011;1244;54.326;10.074;2023-02-24T12:18:28;0.10;;;0.10;;
2464;SDS011;1244;54.326;10.074;2023-02-24T12:23:47;0.10;;;0.10;;
2464;SDS011;1244;54.326;10.074;2023-02-24T12:32:00;0.30;;;0.30;;
2464;SDS011;1244;54.326;10.074;2023-02-24T12:43:31;0.20;;;0.20;;
2464;SDS011;1244;54.326;10.074;2023-02-24T12:46:20;0.20;;;0.20;;
2464;SDS011;1244;54.326;10.074;2023-02-24T12:51:39;0.20;;;0.20;;
2464;SDS011;1244;54.326;10.074;2023-02-24T12:57:37;0.20;;;0.20;;
2464;SDS011;1244;54.326;10.074;2023-02-24T13:02:59;0.10;;;0.10;;
2464;SDS011;1244;54.326;10.074;2023-02-24T13:14:46;0.10;;;0.10;;
2464;SDS011;1244;54.326;10.074;2023-02-24T13:19:34;0.20;;;0.20;;
2464;SDS011;1244;54.326;10.074;2023-02-24T13:24:41;0.20;;;0.20;;
2464;SDS011;1244;54.326;10.074;2023-02-24T13:27:27;0.10;;;0.10;;
2464;SDS011;1244;54.326;10.074;2023-02-24T13:32:25;0.20;;;0.20;;
2464;SDS011;1244;54.326;10.074;2023-02-24T13:34:58;0.20;;;0.20;;
2464;SDS011;1244;54.326;10.074;2023-02-24T13:40:11;0.20;;;0.20;;
2464;SDS011;1244;54.326;10.074;2023-02-24T13:45:33;0.30;;;0.30;;
2464;SDS011;1244;54.326;10.074;2023-02-24T13:53:47;0.23;;;0.23;;
2464;SDS011;1244;54.326;10.074;2023-02-24T13:59:07;0.20;;;0.20;;
2464;SDS011;1244;54.326;10.074;2023-02-24T14:01:57;0.10;;;0.10;;
2464;SDS011;1244;54.326;10.074;2023-02-24T14:04:26;0.10;;;0.10;;
2464;SDS011;1244;54.326;10.074;2023-02-24T14:06:55;0.10;;;0.10;;
2464;SDS011;1244;54.326;10.074;2023-02-24T14:09:25;0.10;;;0.10;;
2464;SDS011;1244;54.326;10.074;2023-02-24T14:11:57;0.20;;;0.20;;
2464;SDS011;1244;54.326;10.074;2023-02-24T14:14:49;0.10;;;0.10;;
2464;SDS011;1244;54.326;10.074;2023-02-24T14:17:33;0.20;;;0.20;;
2464;SDS011;1244;54.326;10.074;2023-02-24T14:20:06;0.20;;;0.20;;
2464;SDS011;1244;54.326;10.074;2023-02-24T14:22:46;0.20;;;0.20;;
2464;SDS011;1244;54.326;10.074;2023-02-24T14:25:14;0.10;;;0.10;;
2464;SDS011;1244;54.326;10.074;2023-02-24T14:27:41;0.10;;;0.10;;
2464;SDS011;1244;54.326;10.074;2023-02-24T14:30:19;0.20;;;0.20;;
2464;SDS011;1244;54.326;10.074;2023-02-24T14:32:55;0.20;;;0.20;;
2464;SDS011;1244;54.326;10.074;2023-02-24T14:35:26;0.20;;;0.20;;
2464;SDS011;1244;54.326;10.074;2023-02-24T14:38:06;0.20;;;0.20;;
2464;SDS011;1244;54.326;10.074;2023-02-24T14:40:50;0.10;;;0.10;;
2464;SDS011;1244;54.326;10.074;2023-02-24T14:43:16;0.30;;;0.30;;
2464;SDS011;1244;54.326;10.074;2023-02-24T14:45:46;0.20;;;0.20;;
2464;SDS011;1244;54.326;10.074;2023-02-24T14:48:24;0.20;;;0.20;;
2464;SDS011;1244;54.326;10.074;2023-02-24T14:50:50;0.30;;;0.30;;
2464;SDS011;1244;54.326;10.074;2023-02-24T14:53:17;0.20;;;0.20;;
2464;SDS011;1244;54.326;10.074;2023-02-24T14:55:47;0.20;;;0.20;;
2464;SDS011;1244;54.326;10.074;2023-02-24T14:58:18;0.20;;;0.20;;
2464;SDS011;1244;54.326;10.074;2023-02-24T15:04:19;0.30;;;0.30;;
2464;SDS011;1244;54.326;10.074;2023-02-24T15:07:01;0.20;;;0.20;;
2464;SDS011;1244;54.326;10.074;2023-02-24T15:09:34;0.20;;;0.20;;
2464;SDS011;1244;54.326;10.074;2023-02-24T15:12:08;0.20;;;0.20;;
2464;SDS011;1244;54.326;10.074;2023-02-24T15:14:37;0.30;;;0.30;;
2464;SDS011;1244;54.326;10.074;2023-02-24T15:17:08;0.30;;;0.30;;
2464;SDS011;1244;54.326;10.074;2023-02-24T15:19:39;0.30;;;0.30;;
2464;SDS011;1244;54.326;10.074;2023-02-24T15:24:46;0.20;;;0.20;;
2464;SDS011;1244;54.326;10.074;2023-02-24T15:29:37;0.40;;;0.40;;
2464;SDS011;1244;54.326;10.074;2023-02-24T15:32:03;0.30;;;0.30;;
2464;SDS011;1244;54.326;10.074;2023-02-24T15:34:35;0.30;;;0.30;;
2464;SDS011;1244;54.326;10.074;2023-02-24T15:37:02;0.30;;;0.30;;
2464;SDS011;1244;54.326;10.074;2023-02-24T15:39:40;0.30;;;0.30;;
2464;SDS011;1244;54.326;10.074;2023-02-24T15:42:08;0.30;;;0.30;;
2464;SDS011;1244;54.326;10.074;2023-02-24T15:44:50;0.30;;;0.30;;
2464;SDS011;1244;54.326;10.074;2023-02-24T15:47:24;0.30;;;0.30;;
2464;SDS011;1244;54.326;10.074;2023-02-24T15:49:52;0.37;;;0.37;;
2464;SDS011;1244;54.326;10.074;2023-02-24T15:52:19;0.40;;;0.40;;
2464;SDS011;1244;54.326;10.074;2023-02-24T15:54:47;0.40;;;0.40;;
2464;SDS011;1244;54.326;10.074;2023-02-24T15:57:13;0.30;;;0.30;;
2464;SDS011;1244;54.326;10.074;2023-02-24T15:59:40;0.20;;;0.20;;
2464;SDS011;1244;54.326;10.074;2023-02-24T16:02:10;0.30;;;0.30;;
2464;SDS011;1244;54.326;10.074;2023-02-24T16:04:39;0.30;;;0.30;;
2464;SDS011;1244;54.326;10.074;2023-02-24T16:07:05;0.30;;;0.30;;
2464;SDS011;1244;54.326;10.074;2023-02-24T16:09:35;0.30;;;0.30;;
2464;SDS011;1244;54.326;10.074;2023-02-24T16:12:14;0.40;;;0.40;;
2464;SDS011;1244;54.326;10.074;2023-02-24T16:14:43;0.30;;;0.30;;
2464;SDS011;1244;54.326;10.074;2023-02-24T16:19:55;0.30;;;0.30;;
2464;SDS011;1244;54.326;10.074;2023-02-24T16:22:22;0.30;;;0.30;;
2464;SDS011;1244;54.326;10.074;2023-02-24T16:24:48;0.30;;;0.30;;
2464;SDS011;1244;54.326;10.074;2023-02-24T16:27:14;0.30;;;0.30;;
2464;SDS011;1244;54.326;10.074;2023-02-24T16:29:41;0.20;;;0.20;;
2464;SDS011;1244;54.326;10.074;2023-02-24T16:32:08;0.23;;;0.23;;
2464;SDS011;1244;54.326;10.074;2023-02-24T16:34:38;0.30;;;0.30;;
2464;SDS011;1244;54.326;10.074;2023-02-24T16:37:09;0.27;;;0.27;;
2464;SDS011;1244;54.326;10.074;2023-02-24T16:39:44;0.20;;;0.20;;
2464;SDS011;1244;54.326;10.074;2023-02-24T16:42:11;0.30;;;0.30;;
2464;SDS011;1244;54.326;10.074;2023-02-24T16:44:37;0.30;;;0.30;;
2464;SDS011;1244;54.326;10.074;2023-02-24T16:47:03;0.30;;;0.30;;
2464;SDS011;1244;54.326;10.074;2023-02-24T16:49:30;0.30;;;0.30;;
2464;SDS011;1244;54.326;10.074;2023-02-24T16:51:57;0.30;;;0.30;;
2464;SDS011;1244;54.326;10.074;2023-02-24T16:54:22;0.30;;;0.30;;
2464;SDS011;1244;54.326;10.074;2023-02-24T16:56:53;0.30;;;0.30;;
2464;SDS011;1244;54.326;10.074;2023-02-24T16:59:19;0.33;;;0.33;;
2464;SDS011;1244;54.326;10.074;2023-02-24T17:01:45;0.30;;;0.30;;
2464;SDS011;1244;54.326;10.074;2023-02-24T17:04:10;0.30;;;0.30;;
2464;SDS011;1244;54.326;10.074;2023-02-24T17:06:38;0.23;;;0.23;;
2464;SDS011;1244;54.326;10.074;2023-02-24T17:09:03;0.40;;;0.40;;
2464;SDS011;1244;54.326;10.074;2023-02-24T17:11:29;0.40;;;0.40;;
2464;SDS011;1244;54.326;10.074;2023-02-24T17:13:55;0.33;;;0.33;;
2464;SDS011;1244;54.326;10.074;2023-02-24T17:16:20;0.30;;;0.30;;
2464;SDS011;1244;54.326;10.074;2023-02-24T17:18:46;0.30;;;0.30;;
2464;SDS011;1244;54.326;10.074;2023-02-24T17:21:11;0.20;;;0.20;;
2464;SDS011;1244;54.326;10.074;2023-02-24T17:23:38;0.23;;;0.23;;
2464;SDS011;1244;54.326;10.074;2023-02-24T17:26:04;0.30;;;0.30;;
2464;SDS011;1244;54.326;10.074;2023-02-24T17:28:30;0.30;;;0.30;;
2464;SDS011;1244;54.326;10.074;2023-02-24T17:30:55;0.20;;;0.20;;
2464;SDS011;1244;54.326;10.074;2023-02-24T17:33:21;0.20;;;0.20;;
2464;SDS011;1244;54.326;10.074;2023-02-24T17:35:47;0.30;;;0.30;;
2464;SDS011;1244;54.326;10.074;2023-02-24T17:38:13;0.30;;;0.30;;
2464;SDS011;1244;54.326;10.074;2023-02-24T17:40:44;0.33;;;0.33;;
2464;SDS011;1244;54.326;10.074;2023-02-24T17:43:10;0.30;;;0.30;;
2464;SDS011;1244;54.326;10.074;2023-02-24T17:45:39;0.30;;;0.30;;
2464;SDS011;1244;54.326;10.074;2023-02-24T17:48:07;0.30;;;0.30;;